createdAt,value
2023-05-05T00:01:34.918Z,38.86
2023-05-05T00:04:02.859Z,39.01
2023-05-05T00:06:31.303Z,39.10
2023-05-05T00:08:58.772Z,39.30
2023-05-05T00:11:26.355Z,39.29
2023-05-05T00:13:54.199Z,39.24
2023-05-05T00:16:23.182Z,39.34
2023-05-05T00:18:50.692Z,39.55
2023-05-05T00:21:18.178Z,39.47
2023-05-05T00:23:45.818Z,39.51
2023-05-05T00:26:13.684Z,39.56
2023-05-05T00:28:41.241Z,39.50
2023-05-05T00:31:08.799Z,39.56
2023-05-05T00:33:36.513Z,39.51
2023-05-05T00:36:04.673Z,39.63
2023-05-05T00:38:32.244Z,39.72
2023-05-05T00:40:59.785Z,39.86
2023-05-05T00:43:27.466Z,39.78
2023-05-05T00:46:02.247Z,40.06
2023-05-05T00:48:30.744Z,40.11
2023-05-05T00:50:59.693Z,40.05
2023-05-05T00:53:28.331Z,39.96
2023-05-05T00:55:56.018Z,40.16
2023-05-05T00:58:23.488Z,40.16
2023-05-05T01:00:51.031Z,40.17
2023-05-05T01:03:18.619Z,40.29
2023-05-05T01:06:18.381Z,40.45
2023-05-05T01:09:20.610Z,40.60
2023-05-05T01:11:59.696Z,40.55
2023-05-05T01:14:52.992Z,40.72
2023-05-05T01:17:28.801Z,40.70
2023-05-05T01:20:17.325Z,40.68
2023-05-05T01:22:47.835Z,40.77
2023-05-05T01:25:30.922Z,40.79
2023-05-05T01:28:32.679Z,40.87
2023-05-05T01:31:05.639Z,40.96
2023-05-05T01:33:44.228Z,40.92
2023-05-05T01:36:22.690Z,40.94
2023-05-05T01:38:59.424Z,41.08
2023-05-05T01:41:33.563Z,41.00
2023-05-05T01:44:04.872Z,40.89
2023-05-05T01:46:36.092Z,40.98
2023-05-05T01:49:04.991Z,40.93
2023-05-05T01:51:33.262Z,40.93
2023-05-05T01:54:04.613Z,41.04
2023-05-05T01:56:33.143Z,40.95
2023-05-05T01:59:02.261Z,41.18
2023-05-05T02:01:30.883Z,41.11
2023-05-05T02:03:59.343Z,41.29
2023-05-05T02:06:32.353Z,41.33
2023-05-05T02:09:01.725Z,41.21
2023-05-05T02:11:29.662Z,41.16
2023-05-05T02:13:59.061Z,41.29
2023-05-05T02:16:28.080Z,41.31
2023-05-05T02:18:57.036Z,41.38
2023-05-05T02:21:24.484Z,41.47
2023-05-05T02:23:52.990Z,41.55
2023-05-05T02:26:30.677Z,41.59
2023-05-05T02:29:16.684Z,41.71
2023-05-05T02:31:48.877Z,41.85
2023-05-05T02:34:22.483Z,41.89
2023-05-05T02:36:54.486Z,41.72
2023-05-05T02:39:35.844Z,41.86
2023-05-05T02:42:05.402Z,41.86
2023-05-05T02:44:34.615Z,41.90
2023-05-05T02:47:04.769Z,42.04
2023-05-05T02:49:32.579Z,41.92
2023-05-05T02:52:01.020Z,41.98
2023-05-05T02:54:31.595Z,42.10
2023-05-05T02:56:59.452Z,42.07
2023-05-05T02:59:34.186Z,42.24
2023-05-05T03:02:17.648Z,42.26
2023-05-05T03:05:16.225Z,42.32
2023-05-05T03:08:00.621Z,42.44
2023-05-05T03:10:34.758Z,42.53
2023-05-05T03:13:03.451Z,42.57
2023-05-05T03:15:48.560Z,42.76
2023-05-05T03:18:18.074Z,42.66
2023-05-05T03:20:46.003Z,42.86
2023-05-05T03:23:13.781Z,43.02
2023-05-05T03:25:46.116Z,42.96
2023-05-05T03:28:15.057Z,42.78
2023-05-05T03:30:43.140Z,43.10
2023-05-05T03:33:11.863Z,43.04
2023-05-05T03:35:39.389Z,43.09
2023-05-05T03:38:07.175Z,43.23
2023-05-05T03:40:43.666Z,43.14
2023-05-05T03:43:13.385Z,43.35
2023-05-05T03:45:41.136Z,43.51
2023-05-05T03:48:09.966Z,43.43
2023-05-05T03:50:37.710Z,43.43
2023-05-05T03:53:05.382Z,43.59
2023-05-05T03:55:32.883Z,43.70
2023-05-05T03:58:00.387Z,43.76
2023-05-05T04:00:28.088Z,43.76
2023-05-05T04:02:56.118Z,43.98
2023-05-05T04:05:23.874Z,43.91
2023-05-05T04:07:51.498Z,44.06
2023-05-05T04:10:18.972Z,44.07
2023-05-05T04:12:46.482Z,44.07
2023-05-05T04:15:14.053Z,44.10
2023-05-05T04:17:41.857Z,44.34
2023-05-05T04:20:09.985Z,44.29
2023-05-05T04:22:37.752Z,44.37
2023-05-05T04:25:05.722Z,44.32
2023-05-05T04:27:33.373Z,44.56
2023-05-05T04:30:00.926Z,44.48
2023-05-05T04:32:28.530Z,44.66
2023-05-05T04:34:56.056Z,44.74
2023-05-05T04:37:25.098Z,44.63
2023-05-05T04:39:52.626Z,44.90
2023-05-05T04:42:20.140Z,44.77
2023-05-05T04:44:47.634Z,44.89
2023-05-05T04:47:15.187Z,44.96
2023-05-05T04:49:42.599Z,45.12
2023-05-05T04:52:12.961Z,45.10
2023-05-05T04:54:40.576Z,45.12
2023-05-05T04:57:08.334Z,45.18
2023-05-05T04:59:36.449Z,45.11
2023-05-05T05:02:04.154Z,45.27
2023-05-05T05:04:34.033Z,45.28
2023-05-05T05:07:01.679Z,45.42
2023-05-05T05:09:31.314Z,45.53
2023-05-05T05:12:00.794Z,45.51
2023-05-05T05:14:36.711Z,45.52
2023-05-05T05:17:07.530Z,45.64
2023-05-05T05:19:35.134Z,45.75
2023-05-05T05:22:02.577Z,45.79
2023-05-05T05:24:30.026Z,45.87
2023-05-05T05:26:58.574Z,45.79
2023-05-05T05:29:26.953Z,45.90
2023-05-05T05:31:54.534Z,46.10
2023-05-05T05:34:22.731Z,46.14
2023-05-05T05:36:50.665Z,46.17
2023-05-05T05:39:18.104Z,46.21
2023-05-05T05:41:45.687Z,46.36
2023-05-05T05:44:13.165Z,46.21
2023-05-05T05:46:40.900Z,46.44
2023-05-05T05:49:09.234Z,46.45
2023-05-05T05:51:37.050Z,46.49
2023-05-05T05:54:04.768Z,46.50
2023-05-05T05:56:32.291Z,46.74
2023-05-05T05:59:01.334Z,46.83
2023-05-05T06:01:29.519Z,46.84
2023-05-05T06:03:57.459Z,46.86
2023-05-05T06:06:25.331Z,47.04
2023-05-05T06:08:53.462Z,47.19
2023-05-05T06:11:22.318Z,47.28
2023-05-05T06:13:50.251Z,47.34
2023-05-05T06:16:17.732Z,47.34
2023-05-05T06:18:46.312Z,47.45
2023-05-05T06:21:13.893Z,47.34
2023-05-05T06:23:42.391Z,47.48
2023-05-05T06:26:10.010Z,47.43
2023-05-05T06:28:38.687Z,47.53
2023-05-05T06:31:06.323Z,47.46
2023-05-05T06:33:33.899Z,47.45
2023-05-05T06:36:01.403Z,47.49
2023-05-05T06:38:29.585Z,47.79
2023-05-05T06:40:58.716Z,47.76
2023-05-05T06:43:27.115Z,47.82
2023-05-05T06:45:54.924Z,47.81
2023-05-05T06:48:22.410Z,47.92
2023-05-05T06:50:49.941Z,47.85
2023-05-05T06:53:17.574Z,47.90
2023-05-05T06:55:46.990Z,47.95
2023-05-05T06:58:14.462Z,48.06
2023-05-05T07:00:42.090Z,47.92
2023-05-05T07:03:10.030Z,47.97
2023-05-05T07:05:37.554Z,47.98
2023-05-05T07:08:05.590Z,48.13
2023-05-05T07:10:33.155Z,48.07
2023-05-05T07:13:01.167Z,48.14
2023-05-05T07:15:29.814Z,48.20
2023-05-05T07:17:57.744Z,48.20
2023-05-05T07:20:26.239Z,48.30
2023-05-05T07:22:53.860Z,48.32
2023-05-05T07:25:21.575Z,48.29
2023-05-05T07:27:49.336Z,48.36
2023-05-05T07:30:18.872Z,48.36
2023-05-05T07:32:47.369Z,48.24
2023-05-05T07:35:15.131Z,48.16
2023-05-05T07:37:42.669Z,48.28
2023-05-05T07:40:11.123Z,48.33
2023-05-05T07:42:39.486Z,48.42
2023-05-05T07:45:07.633Z,48.07
2023-05-05T07:47:35.364Z,48.09
2023-05-05T07:50:03.175Z,48.07
2023-05-05T07:52:45.222Z,48.08
2023-05-05T07:55:16.086Z,48.07
2023-05-05T07:57:43.660Z,47.97
2023-05-05T08:00:13.416Z,48.06
2023-05-05T08:02:41.632Z,48.05
2023-05-05T08:05:09.800Z,47.92
2023-05-05T08:07:41.204Z,48.03
2023-05-05T08:10:12.486Z,47.92
2023-05-05T08:12:40.335Z,47.99
2023-05-05T08:15:08.629Z,48.06
2023-05-05T08:17:56.445Z,47.95
2023-05-05T08:20:29.026Z,47.92
2023-05-05T08:22:56.570Z,48.02
2023-05-05T08:25:27.297Z,47.86
2023-05-05T08:27:54.852Z,47.94
2023-05-05T08:30:22.469Z,47.93
2023-05-05T08:32:50.026Z,47.96
2023-05-05T08:35:17.854Z,47.96
2023-05-05T08:37:46.308Z,47.83
2023-05-05T08:40:15.007Z,47.67
2023-05-05T08:42:45.639Z,47.52
2023-05-05T08:45:13.268Z,47.88
2023-05-05T08:47:41.959Z,47.72
2023-05-05T08:50:11.294Z,47.90
2023-05-05T08:52:42.038Z,47.74
2023-05-05T08:55:18.246Z,47.65
2023-05-05T08:57:57.299Z,47.47
2023-05-05T09:00:27.467Z,47.52
2023-05-05T09:02:59.785Z,47.35
2023-05-05T09:05:27.662Z,47.32
2023-05-05T09:07:55.339Z,46.97
2023-05-05T09:10:24.652Z,46.83
2023-05-05T09:12:52.416Z,46.87
2023-05-05T09:15:20.009Z,46.86
2023-05-05T09:17:47.642Z,46.62
2023-05-05T09:20:15.602Z,46.41
2023-05-05T09:22:46.121Z,46.38
2023-05-05T09:25:18.144Z,46.18
2023-05-05T09:27:49.047Z,46.14
2023-05-05T09:30:27.009Z,45.90
2023-05-05T09:32:55.493Z,45.65
2023-05-05T09:35:23.769Z,45.67
2023-05-05T09:37:51.225Z,45.43
2023-05-05T09:40:20.062Z,45.52
2023-05-05T09:42:48.144Z,45.17
2023-05-05T09:45:18.781Z,45.04
2023-05-05T09:47:48.092Z,45.03
2023-05-05T09:50:19.167Z,44.91
2023-05-05T09:53:03.466Z,44.98
2023-05-05T09:55:31.482Z,45.01
2023-05-05T09:58:24.027Z,44.70
2023-05-05T10:00:52.032Z,44.72
2023-05-05T10:03:20.894Z,44.45
2023-05-05T10:05:50.537Z,44.35
2023-05-05T10:08:20.887Z,44.35
2023-05-05T10:10:54.163Z,44.42
2023-05-05T10:13:24.145Z,44.38
2023-05-05T10:15:53.939Z,44.34
2023-05-05T10:18:24.380Z,44.18
2023-05-05T10:20:58.283Z,44.11
2023-05-05T10:23:38.146Z,44.02
2023-05-05T10:26:07.707Z,43.96
2023-05-05T10:28:44.694Z,43.75
2023-05-05T10:31:25.625Z,43.67
2023-05-05T10:34:03.855Z,43.75
2023-05-05T10:36:32.638Z,43.85
2023-05-05T10:39:01.644Z,43.85
2023-05-05T10:41:31.297Z,43.79
2023-05-05T10:44:02.792Z,43.67
2023-05-05T10:46:32.090Z,43.65
2023-05-05T10:49:19.796Z,43.52
2023-05-05T10:51:57.642Z,43.57
2023-05-05T10:54:40.988Z,43.44
2023-05-05T10:57:11.804Z,43.23
2023-05-05T10:59:40.762Z,43.19
2023-05-05T11:02:26.055Z,43.02
2023-05-05T11:05:20.713Z,42.86
2023-05-05T11:07:50.667Z,42.92
2023-05-05T11:10:21.004Z,43.01
2023-05-05T11:12:51.917Z,42.98
2023-05-05T11:15:38.119Z,42.87
2023-05-05T11:18:07.828Z,42.69
2023-05-05T11:20:39.775Z,42.63
2023-05-05T11:23:07.512Z,42.53
2023-05-05T11:25:36.659Z,42.64
2023-05-05T11:28:23.210Z,42.73
2023-05-05T11:30:57.942Z,42.69
2023-05-05T11:33:30.191Z,42.83
2023-05-05T11:36:05.074Z,42.58
2023-05-05T11:39:10.151Z,42.14
2023-05-05T11:42:10.704Z,41.90
2023-05-05T11:44:39.225Z,41.88
2023-05-05T11:47:06.776Z,41.73
2023-05-05T11:49:36.815Z,41.73
2023-05-05T11:52:06.462Z,41.68
2023-05-05T11:54:55.978Z,41.78
2023-05-05T11:57:30.664Z,41.49
2023-05-05T12:00:05.795Z,41.67
2023-05-05T12:02:34.010Z,41.71
2023-05-05T12:05:03.480Z,41.65
2023-05-05T12:07:33.219Z,41.78
2023-05-05T12:10:01.270Z,41.81
2023-05-05T12:12:37.466Z,41.67
2023-05-05T12:15:06.288Z,41.86
2023-05-05T12:17:43.848Z,41.71
2023-05-05T12:20:12.819Z,41.27
2023-05-05T12:22:40.913Z,40.91
2023-05-05T12:25:09.323Z,40.66
2023-05-05T12:27:36.903Z,40.43
2023-05-05T12:30:16.577Z,40.50
2023-05-05T12:32:45.116Z,40.41
2023-05-05T12:35:13.749Z,40.26
2023-05-05T12:37:42.965Z,40.27
2023-05-05T12:40:42.444Z,40.15
2023-05-05T12:43:11.002Z,40.02
2023-05-05T12:45:38.540Z,39.92
2023-05-05T12:48:22.356Z,40.07
2023-05-05T12:50:50.005Z,39.89
2023-05-05T12:53:24.596Z,39.96
2023-05-05T12:55:52.183Z,40.08
2023-05-05T12:58:19.640Z,39.96
2023-05-05T13:01:10.605Z,39.80
2023-05-05T13:03:38.355Z,39.57
2023-05-05T13:06:25.003Z,39.64
2023-05-05T13:08:53.208Z,39.48
2023-05-05T13:11:20.786Z,39.31
2023-05-05T13:13:48.316Z,39.23
2023-05-05T13:16:15.828Z,39.21
2023-05-05T13:18:48.331Z,39.04
2023-05-05T13:21:16.602Z,38.90
2023-05-05T13:23:47.711Z,38.79
2023-05-05T13:26:15.163Z,38.66
2023-05-05T13:28:42.670Z,38.99
2023-05-05T13:31:10.312Z,39.00
2023-05-05T13:33:37.819Z,38.31
2023-05-05T13:36:05.659Z,37.82
2023-05-05T13:38:33.225Z,37.15
2023-05-05T13:41:00.810Z,36.99
2023-05-05T13:43:28.544Z,37.17
2023-05-05T13:46:05.597Z,37.42
2023-05-05T13:48:42.660Z,37.38
2023-05-05T13:51:10.283Z,37.02
2023-05-05T13:53:40.131Z,36.51
2023-05-05T13:56:07.758Z,35.90
2023-05-05T13:58:37.204Z,35.75
2023-05-05T14:01:05.604Z,35.38
2023-05-05T14:03:33.138Z,34.99
2023-05-05T14:06:00.835Z,34.33
2023-05-05T14:08:28.495Z,33.60
2023-05-05T14:10:56.139Z,33.01
2023-05-05T14:13:23.748Z,32.86
2023-05-05T14:15:52.577Z,32.66
2023-05-05T14:18:20.696Z,32.49
2023-05-05T14:20:48.834Z,32.42
2023-05-05T14:23:16.365Z,32.52
2023-05-05T14:25:43.954Z,32.41
2023-05-05T14:28:11.442Z,32.19
2023-05-05T14:30:39.756Z,32.15
2023-05-05T14:33:07.423Z,32.31
2023-05-05T14:35:35.177Z,32.39
2023-05-05T14:38:02.636Z,32.45
2023-05-05T14:40:31.243Z,32.42
2023-05-05T14:42:58.836Z,32.58
2023-05-05T14:45:27.419Z,32.58
2023-05-05T14:47:55.064Z,32.66
2023-05-05T14:50:22.639Z,32.66
2023-05-05T14:52:50.288Z,32.64
2023-05-05T14:55:17.998Z,32.66
2023-05-05T14:57:45.614Z,32.71
2023-05-05T15:00:13.848Z,32.73
2023-05-05T15:02:41.385Z,32.91
2023-05-05T15:05:09.337Z,33.01
2023-05-05T15:07:37.210Z,32.79
2023-05-05T15:10:05.277Z,32.51
2023-05-05T15:12:33.357Z,32.58
2023-05-05T15:15:01.223Z,32.15
2023-05-05T15:17:30.631Z,32.03
2023-05-05T15:19:58.308Z,31.97
2023-05-05T15:22:25.943Z,31.56
2023-05-05T15:24:53.402Z,31.25
2023-05-05T15:27:21.021Z,31.08
2023-05-05T15:29:48.691Z,31.19
2023-05-05T15:32:16.227Z,31.11
2023-05-05T15:34:46.792Z,30.68
2023-05-05T15:37:15.283Z,30.27
2023-05-05T15:39:42.805Z,30.48
2023-05-05T15:42:10.333Z,30.11
2023-05-05T15:44:38.244Z,29.64
2023-05-05T15:47:06.693Z,29.51
2023-05-05T15:49:34.230Z,29.13
2023-05-05T15:52:01.788Z,28.87
2023-05-05T15:54:29.417Z,28.50
2023-05-05T15:56:56.945Z,28.29
2023-05-05T15:59:24.751Z,27.79
2023-05-05T16:01:52.439Z,27.48
2023-05-05T16:04:20.400Z,27.18
2023-05-05T16:06:48.102Z,26.94
2023-05-05T16:09:15.645Z,26.88
2023-05-05T16:11:43.764Z,26.69
2023-05-05T16:14:11.273Z,26.18
2023-05-05T16:16:39.050Z,25.85
2023-05-05T16:19:06.531Z,25.52
2023-05-05T16:21:33.950Z,25.50
2023-05-05T16:24:01.491Z,25.34
2023-05-05T16:26:29.072Z,25.18
2023-05-05T16:28:56.879Z,24.85
2023-05-05T16:31:24.382Z,24.52
2023-05-05T16:33:51.946Z,24.27
2023-05-05T16:36:20.613Z,24.11
2023-05-05T16:38:49.472Z,24.02
2023-05-05T16:41:17.005Z,24.06
2023-05-05T16:43:44.448Z,24.06
2023-05-05T16:46:12.194Z,23.95
2023-05-05T16:48:39.786Z,23.81
2023-05-05T16:51:07.408Z,23.70
2023-05-05T16:53:35.272Z,23.73
2023-05-05T16:56:02.903Z,23.26
2023-05-05T16:58:30.478Z,23.06
2023-05-05T17:00:58.016Z,23.31
2023-05-05T17:03:25.496Z,23.35
2023-05-05T17:05:53.100Z,23.17
2023-05-05T17:08:20.875Z,22.97
2023-05-05T17:10:48.305Z,22.97
2023-05-05T17:13:15.954Z,23.06
2023-05-05T17:15:44.236Z,23.03
2023-05-05T17:18:11.753Z,23.11
2023-05-05T17:20:39.175Z,23.21
2023-05-05T17:23:08.581Z,23.31
2023-05-05T17:25:36.167Z,23.51
2023-05-05T17:28:03.823Z,23.60
2023-05-05T17:30:31.554Z,23.85
2023-05-05T17:32:59.101Z,23.99
2023-05-05T17:35:26.732Z,24.30
2023-05-05T17:37:54.236Z,24.42
2023-05-05T17:40:21.971Z,24.58
2023-05-05T17:42:49.413Z,24.75
2023-05-05T17:45:16.931Z,24.88
2023-05-05T17:47:44.406Z,25.23
2023-05-05T17:50:12.005Z,25.31
2023-05-05T17:52:40.559Z,25.59
2023-05-05T17:55:08.865Z,25.71
2023-05-05T17:57:36.690Z,25.97
2023-05-05T18:00:06.009Z,26.21
2023-05-05T18:02:37.131Z,26.38
2023-05-05T18:05:05.751Z,26.54
2023-05-05T18:07:33.705Z,26.83
2023-05-05T18:10:01.217Z,27.06
2023-05-05T18:12:28.772Z,27.34
2023-05-05T18:14:56.261Z,27.59
2023-05-05T18:17:23.815Z,27.69
2023-05-05T18:19:51.334Z,27.95
2023-05-05T18:22:18.852Z,28.12
2023-05-05T18:24:47.029Z,28.29
2023-05-05T18:27:15.453Z,28.65
2023-05-05T18:29:42.939Z,28.73
2023-05-05T18:32:10.492Z,28.93
2023-05-05T18:34:38.043Z,29.01
2023-05-05T18:37:05.542Z,28.99
2023-05-05T18:39:33.103Z,28.90
2023-05-05T18:42:00.732Z,28.96
2023-05-05T18:44:28.255Z,29.00
2023-05-05T18:46:55.817Z,29.15
2023-05-05T18:49:24.724Z,29.22
2023-05-05T18:51:53.719Z,29.34
2023-05-05T18:54:22.054Z,29.42
2023-05-05T18:56:49.736Z,29.53
2023-05-05T18:59:17.818Z,29.53
2023-05-05T19:01:45.317Z,29.50
2023-05-05T19:04:26.816Z,29.67
2023-05-05T19:06:57.527Z,29.61
2023-05-05T19:09:25.319Z,29.68
2023-05-05T19:11:53.572Z,29.69
2023-05-05T19:14:22.867Z,29.73
2023-05-05T19:16:50.932Z,29.77
2023-05-05T19:19:18.551Z,29.95
2023-05-05T19:21:46.118Z,30.08
2023-05-05T19:24:13.613Z,30.18
2023-05-05T19:26:41.226Z,30.17
2023-05-05T19:29:08.828Z,30.20
2023-05-05T19:31:36.730Z,30.42
2023-05-05T19:34:05.272Z,30.40
2023-05-05T19:36:34.573Z,30.51
2023-05-05T19:39:03.432Z,30.56
2023-05-05T19:41:31.124Z,30.64
2023-05-05T19:43:58.671Z,30.74
2023-05-05T19:46:26.600Z,30.77
2023-05-05T19:48:54.334Z,30.91
2023-05-05T19:51:22.108Z,30.82
2023-05-05T19:53:50.228Z,31.07
2023-05-05T19:56:17.828Z,31.02
2023-05-05T19:59:01.991Z,31.06
2023-05-05T20:01:29.674Z,31.18
2023-05-05T20:03:57.748Z,31.29
2023-05-05T20:06:25.771Z,31.34
2023-05-05T20:08:54.624Z,31.33
2023-05-05T20:11:22.236Z,31.44
2023-05-05T20:13:50.661Z,31.32
2023-05-05T20:16:18.586Z,31.50
2023-05-05T20:18:46.336Z,31.33
2023-05-05T20:21:14.401Z,31.61
2023-05-05T20:23:43.116Z,31.46
2023-05-05T20:26:11.325Z,31.50
2023-05-05T20:28:40.847Z,31.49
2023-05-05T20:31:18.295Z,31.55
2023-05-05T20:33:45.906Z,31.72
2023-05-05T20:36:13.452Z,31.52
2023-05-05T20:38:41.097Z,31.57
2023-05-05T20:41:08.657Z,31.59
2023-05-05T20:43:36.658Z,31.65
2023-05-05T20:46:04.267Z,31.60
2023-05-05T20:48:31.807Z,31.59
2023-05-05T20:51:03.665Z,31.82
2023-05-05T20:53:31.197Z,31.97
2023-05-05T20:55:58.838Z,31.97
2023-05-05T20:58:26.320Z,31.95
2023-05-05T21:00:53.905Z,31.92
2023-05-05T21:03:21.630Z,31.96
2023-05-05T21:05:49.104Z,31.91
2023-05-05T21:08:16.737Z,31.99
2023-05-05T21:10:44.182Z,32.06
2023-05-05T21:13:11.716Z,31.98
2023-05-05T21:15:39.334Z,32.10
2023-05-05T21:18:07.735Z,32.11
2023-05-05T21:20:35.746Z,32.15
2023-05-05T21:23:03.485Z,32.30
2023-05-05T21:25:31.116Z,32.41
2023-05-05T21:27:58.734Z,32.34
2023-05-05T21:30:27.327Z,32.32
2023-05-05T21:32:54.914Z,32.34
2023-05-05T21:35:22.460Z,32.41
2023-05-05T21:37:50.036Z,32.51
2023-05-05T21:40:17.559Z,32.43
2023-05-05T21:42:45.158Z,32.46
2023-05-05T21:45:12.876Z,32.49
2023-05-05T21:47:40.516Z,32.36
2023-05-05T21:50:09.921Z,32.41
2023-05-05T21:52:37.714Z,32.44
2023-05-05T21:55:05.902Z,32.39
2023-05-05T21:57:33.524Z,32.55
2023-05-05T22:00:01.014Z,32.43
2023-05-05T22:02:28.564Z,32.62
2023-05-05T22:04:56.848Z,32.52
2023-05-05T22:07:25.944Z,32.66
2023-05-05T22:09:53.554Z,32.61
2023-05-05T22:12:21.091Z,32.55
2023-05-05T22:14:48.605Z,32.75
2023-05-05T22:17:16.073Z,32.67
2023-05-05T22:19:43.563Z,32.68
2023-05-05T22:22:11.382Z,32.73
2023-05-05T22:24:38.925Z,32.71
2023-05-05T22:27:06.674Z,32.77
2023-05-05T22:29:34.147Z,32.80
2023-05-05T22:32:01.700Z,32.87
2023-05-05T22:34:29.751Z,32.94
2023-05-05T22:36:58.771Z,32.99
2023-05-05T22:39:26.942Z,33.03
2023-05-05T22:41:54.477Z,33.01
2023-05-05T22:44:22.061Z,33.10
2023-05-05T22:46:49.755Z,33.35
2023-05-05T22:49:18.411Z,33.30
2023-05-05T22:51:46.983Z,33.29
2023-05-05T22:54:14.479Z,33.27
2023-05-05T22:56:42.101Z,33.40
2023-05-05T22:59:09.601Z,33.36
2023-05-05T23:01:39.132Z,33.43
2023-05-05T23:04:07.351Z,33.48
2023-05-05T23:06:34.912Z,33.48
2023-05-05T23:09:02.433Z,33.44
2023-05-05T23:11:30.243Z,33.53
2023-05-05T23:13:57.776Z,33.44
2023-05-05T23:16:25.458Z,33.48
2023-05-05T23:18:53.134Z,33.77
2023-05-05T23:21:21.166Z,33.79
2023-05-05T23:23:49.378Z,33.75
2023-05-05T23:26:17.127Z,33.77
2023-05-05T23:28:44.712Z,33.83
2023-05-05T23:31:12.311Z,33.98
2023-05-05T23:33:40.155Z,33.95
2023-05-05T23:36:08.956Z,33.90
2023-05-05T23:38:36.554Z,34.03
2023-05-05T23:41:04.488Z,33.97
2023-05-05T23:43:32.093Z,34.01
2023-05-05T23:45:59.785Z,34.01
2023-05-05T23:48:27.390Z,34.14
2023-05-05T23:50:55.219Z,34.10
2023-05-05T23:53:23.927Z,34.08
2023-05-05T23:55:51.467Z,34.30
2023-05-05T23:58:19.107Z,34.32
